Rubicon Bay, California
Current Conditions -  °F | °C
As of 6:53 AM on Thursday 30 Oct 2014 (Local Time) from KTVL Reporting Station
Clear Clear  
Wind Chill: 30°   Ceiling: Unl
Heat Index: 30°   Visibility: 10mi
Dew Point: 24°   Wind: 3mph
Humidity: 79%   Direction: 190°S
Pressure: 30.2"   Gusts: NA
Location:  39.0516°N, 120.165°W
Report Text: KTVL 301353Z AUTO 19003KT 10SM CLR M01/M04 A3020 RMK AO2 SLP211 T10111044
Loading
Personal Weather Stations






























Interactive Weather Map
Tropical Storm Tracking
New forecast layout! Learn more

10-Day Weather Forecast

Advertisements
Track Severe Weather on mobile